Time;durP1;ratioP1;P1;durP2;ratioP2;P2;SDS_P1;SDS_P2;PMS_P1;PMS_P2;Temp;Humidity;BMP_temperature;BMP_pressure;BME280_temperature;BME280_humidity;BME280_pressure;Samples;Min_cycle;Max_cycle;Signal;HPM_P1;HPM_P2
2021/06/18 00:00:23;;;;;;;16.67;15.57;;;25.70;85.80;;;;;;3585744;39;20489;-65
2021/06/18 00:02:53;;;;;;;17.33;15.73;;;25.70;85.90;;;;;;3593815;40;20485;-65
2021/06/18 00:05:22;;;;;;;17.40;16.20;;;25.70;85.90;;;;;;3602523;39;20580;-65
2021/06/18 00:07:50;;;;;;;18.10;16.90;;;25.70;85.80;;;;;;3603538;39;20492;-65
2021/06/18 00:10:20;;;;;;;17.33;16.20;;;25.70;85.90;;;;;;3599625;39;20489;-65
2021/06/18 00:12:48;;;;;;;16.97;16.03;;;25.60;85.80;;;;;;3592927;40;20485;-65
2021/06/18 00:15:17;;;;;;;17.20;16.10;;;25.60;85.80;;;;;;3600257;39;20480;-65
2021/06/18 00:17:46;;;;;;;16.10;15.20;;;25.60;85.80;;;;;;3592751;39;20485;-65
2021/06/18 00:20:16;;;;;;;16.50;15.50;;;25.60;85.80;;;;;;3595362;39;20484;-65
2021/06/18 00:22:45;;;;;;;15.47;14.63;;;25.60;85.80;;;;;;3596568;39;20480;-65
2021/06/18 00:25:14;;;;;;;16.30;15.20;;;25.60;85.70;;;;;;3593856;40;20516;-65
2021/06/18 00:27:44;;;;;;;17.13;15.97;;;25.60;85.70;;;;;;3600146;39;20537;-65
2021/06/18 00:30:13;;;;;;;16.30;15.30;;;25.60;85.70;;;;;;3603941;39;20499;-65
2021/06/18 00:32:40;;;;;;;15.60;14.60;;;25.60;85.60;;;;;;3604548;39;20469;-65
2021/06/18 00:35:09;;;;;;;16.07;14.87;;;25.60;85.70;;;;;;3603719;39;21035;-65
2021/06/18 00:37:38;;;;;;;15.93;14.90;;;25.60;85.60;;;;;;3603730;39;20518;-65
2021/06/18 00:40:08;;;;;;;17.23;15.80;;;25.60;85.60;;;;;;3603439;39;20475;-65
2021/06/18 00:42:36;;;;;;;16.50;15.40;;;25.60;85.60;;;;;;3584654;40;20494;-65
2021/06/18 00:45:11;;;;;;;15.90;14.83;;;25.60;85.60;;;;;;3594509;40;20863;-65
2021/06/18 00:47:47;;;;;;;16.17;15.07;;;25.60;85.50;;;;;;3599170;39;20481;-65
2021/06/18 00:50:16;;;;;;;15.50;14.50;;;25.60;85.50;;;;;;3594591;40;21381;-65
2021/06/18 00:52:48;;;;;;;15.90;15.00;;;25.60;85.50;;;;;;3593430;39;20469;-65
2021/06/18 00:55:16;;;;;;;16.17;14.97;;;25.60;85.40;;;;;;3594211;40;20873;-65
2021/06/18 00:57:46;;;;;;;15.33;14.47;;;25.60;85.40;;;;;;3593777;39;20492;-65
2021/06/18 01:00:14;;;;;;;15.13;14.33;;;25.60;85.40;;;;;;3593614;40;20915;-65
2021/06/18 01:02:42;;;;;;;14.90;14.00;;;25.60;85.40;;;;;;3593393;39;20568;-65
2021/06/18 01:05:13;;;;;;;16.10;15.00;;;25.60;85.40;;;;;;3593340;40;20481;-65
2021/06/18 01:07:51;;;;;;;16.00;15.03;;;25.50;85.30;;;;;;3593886;39;20964;-65
2021/06/18 01:10:28;;;;;;;15.13;14.20;;;25.60;85.40;;;;;;3603297;39;20785;-65
2021/06/18 01:13:06;;;;;;;16.57;15.30;;;25.50;85.30;;;;;;3593619;39;21054;-65
2021/06/18 01:15:44;;;;;;;17.07;15.80;;;25.50;85.20;;;;;;3592875;40;20477;-65
2021/06/18 01:18:14;;;;;;;16.90;15.83;;;25.50;85.10;;;;;;3593576;39;20536;-65
2021/06/18 01:21:00;;;;;;;15.90;15.00;;;25.50;85.00;;;;;;3593239;39;20493;-65
2021/06/18 01:23:54;;;;;;;17.00;15.90;;;25.50;85.10;;;;;;3593481;39;20489;-65
2021/06/18 01:26:37;;;;;;;15.70;14.90;;;25.50;85.00;;;;;;3586395;39;20539;-65
2021/06/18 01:29:08;;;;;;;16.47;15.57;;;25.50;84.90;;;;;;3605739;39;20476;-65
2021/06/18 01:31:43;;;;;;;15.40;14.50;;;25.50;84.80;;;;;;3593972;39;21001;-65
2021/06/18 01:34:14;;;;;;;16.43;15.40;;;25.50;84.80;;;;;;3603596;39;20890;-65
2021/06/18 01:36:47;;;;;;;15.57;14.63;;;25.50;84.70;;;;;;3593487;39;20492;-65
2021/06/18 01:39:16;;;;;;;15.70;14.87;;;25.50;84.60;;;;;;3599484;39;20489;-65
2021/06/18 01:41:47;;;;;;;16.13;15.13;;;25.50;84.60;;;;;;3593749;39;20472;-65
2021/06/18 01:44:17;;;;;;;15.13;14.03;;;25.50;84.60;;;;;;3591655;39;20518;-65
2021/06/18 01:46:47;;;;;;;15.70;14.83;;;25.50;84.40;;;;;;3593316;40;20914;-65
2021/06/18 01:49:16;;;;;;;15.50;14.57;;;25.50;84.40;;;;;;3593527;39;20558;-65
2021/06/18 01:52:01;;;;;;;16.17;15.17;;;25.50;84.20;;;;;;3595093;39;20497;-65
2021/06/18 01:54:30;;;;;;;15.30;14.40;;;25.50;84.30;;;;;;3602368;39;20480;-65
2021/06/18 01:57:01;;;;;;;16.27;15.27;;;25.50;84.20;;;;;;3602576;39;20492;-65
2021/06/18 01:59:34;;;;;;;14.90;14.00;;;25.50;84.20;;;;;;3589030;40;20497;-65
2021/06/18 02:02:03;;;;;;;16.53;15.53;;;25.50;84.20;;;;;;3592885;39;20477;-65
2021/06/18 02:04:33;;;;;;;16.00;14.97;;;25.50;84.20;;;;;;3593186;40;20481;-65
2021/06/18 02:07:03;;;;;;;15.53;14.63;;;25.50;84.10;;;;;;3593614;40;20489;-65
2021/06/18 02:09:34;;;;;;;16.40;15.40;;;25.50;83.90;;;;;;3594021;39;20493;-65
2021/06/18 02:12:07;;;;;;;15.43;14.63;;;25.50;83.90;;;;;;3593237;40;20473;-65
2021/06/18 02:14:40;;;;;;;15.57;14.57;;;25.50;83.90;;;;;;3583924;40;20506;-65
2021/06/18 02:17:08;;;;;;;16.23;14.93;;;25.50;83.80;;;;;;3591535;40;21195;-65
2021/06/18 02:19:40;;;;;;;15.63;14.80;;;25.50;83.70;;;;;;3593258;39;20492;-65
2021/06/18 02:22:11;;;;;;;15.30;14.40;;;25.50;83.70;;;;;;3584459;40;20482;-65
2021/06/18 02:24:44;;;;;;;15.07;14.17;;;25.50;83.60;;;;;;3593487;40;20932;-65
2021/06/18 02:27:15;;;;;;;15.60;14.60;;;25.50;83.60;;;;;;3593661;40;20757;-65
2021/06/18 02:29:44;;;;;;;15.90;14.90;;;25.50;83.60;;;;;;3601655;39;20509;-65
2021/06/18 02:32:15;;;;;;;15.60;14.70;;;25.50;83.60;;;;;;3603016;39;20788;-65
2021/06/18 02:34:45;;;;;;;16.03;15.10;;;25.50;83.70;;;;;;3601986;39;20483;-65
2021/06/18 02:37:13;;;;;;;16.10;14.93;;;25.50;83.60;;;;;;3602957;39;20574;-65
2021/06/18 02:39:43;;;;;;;15.27;14.47;;;25.50;83.70;;;;;;3594134;39;20490;-65
2021/06/18 02:42:12;;;;;;;14.60;13.70;;;25.50;83.60;;;;;;3593052;40;20517;-65
2021/06/18 02:44:40;;;;;;;15.40;14.50;;;25.50;83.60;;;;;;3592825;40;21161;-65
2021/06/18 02:47:15;;;;;;;15.27;14.37;;;25.50;83.60;;;;;;3592744;40;20504;-65
2021/06/18 02:49:47;;;;;;;18.20;16.93;;;25.50;83.50;;;;;;3594358;39;20499;-65
2021/06/18 02:52:23;;;;;;;15.23;14.40;;;25.50;83.40;;;;;;3592007;39;20568;-65
2021/06/18 02:55:02;;;;;;;15.13;14.33;;;25.50;83.40;;;;;;3593093;39;20490;-65
2021/06/18 02:57:35;;;;;;;16.83;15.83;;;25.50;83.30;;;;;;3603021;39;20475;-65
2021/06/18 03:00:08;;;;;;;17.17;16.07;;;25.50;83.30;;;;;;3600964;39;20930;-65
2021/06/18 03:02:44;;;;;;;16.57;15.67;;;25.50;83.40;;;;;;3593373;40;20512;-65
2021/06/18 03:05:15;;;;;;;18.00;17.00;;;25.40;83.20;;;;;;3593178;40;21140;-65
2021/06/18 03:07:52;;;;;;;16.80;15.90;;;25.40;83.20;;;;;;3592838;40;20574;-65
2021/06/18 03:10:25;;;;;;;18.17;17.03;;;25.40;83.20;;;;;;3598541;39;20468;-65
2021/06/18 03:13:01;;;;;;;17.80;16.87;;;25.40;83.20;;;;;;3602822;39;20473;-65
2021/06/18 03:15:33;;;;;;;17.87;16.87;;;25.40;83.20;;;;;;3601803;39;20491;-65
2021/06/18 03:18:03;;;;;;;16.87;15.93;;;25.40;83.10;;;;;;3602015;39;20480;-65
2021/06/18 03:20:35;;;;;;;17.37;16.07;;;25.40;83.10;;;;;;3594361;39;20493;-65
2021/06/18 03:23:06;;;;;;;17.23;16.13;;;25.40;83.10;;;;;;3593185;40;20511;-65
2021/06/18 03:25:36;;;;;;;16.30;15.30;;;25.40;83.10;;;;;;3592320;40;20481;-65
2021/06/18 03:28:05;;;;;;;16.03;15.13;;;25.40;83.10;;;;;;3592259;40;20488;-65
2021/06/18 03:30:35;;;;;;;16.67;15.73;;;25.40;83.00;;;;;;3600010;39;20480;-65
2021/06/18 03:33:05;;;;;;;16.23;15.27;;;25.40;82.90;;;;;;3602056;39;20472;-65
2021/06/18 03:35:33;;;;;;;16.50;15.40;;;25.40;82.80;;;;;;3603257;39;20492;-65
2021/06/18 03:38:01;;;;;;;16.93;15.90;;;25.40;82.80;;;;;;3604112;39;20472;-65
2021/06/18 03:40:30;;;;;;;15.93;14.63;;;25.40;82.80;;;;;;3603641;39;20488;-65
2021/06/18 03:42:59;;;;;;;14.97;14.13;;;25.40;82.80;;;;;;3593208;39;20586;-65
2021/06/18 03:45:27;;;;;;;16.20;15.10;;;25.40;82.70;;;;;;3593458;40;20562;-65
2021/06/18 03:47:58;;;;;;;16.60;15.70;;;25.40;83.40;;;;;;3592983;40;20492;-65
2021/06/18 03:50:28;;;;;;;15.73;14.83;;;25.40;82.60;;;;;;3595490;39;20528;-65
2021/06/18 03:52:56;;;;;;;15.73;14.83;;;25.40;82.50;;;;;;3603941;39;20706;-65
2021/06/18 03:55:24;;;;;;;15.53;14.80;;;25.40;82.60;;;;;;3602970;39;20490;-65
2021/06/18 03:57:52;;;;;;;14.30;13.60;;;25.40;82.50;;;;;;3602508;39;20539;-65
2021/06/18 04:00:21;;;;;;;16.43;15.37;;;25.30;82.40;;;;;;3602749;39;20483;-65
2021/06/18 04:02:51;;;;;;;15.47;14.63;;;25.40;82.40;;;;;;3603418;39;20484;-65
2021/06/18 04:05:22;;;;;;;16.43;15.50;;;25.30;82.30;;;;;;3602441;39;20498;-65
2021/06/18 04:07:53;;;;;;;17.00;16.10;;;25.30;82.30;;;;;;3591526;39;20493;-65
2021/06/18 04:10:21;;;;;;;16.60;15.80;;;25.30;82.30;;;;;;3591714;40;20503;-65
2021/06/18 04:12:53;;;;;;;17.80;16.67;;;25.30;82.30;;;;;;3596375;39;20703;-65
2021/06/18 04:15:23;;;;;;;18.47;17.10;;;25.30;82.30;;;;;;3602096;39;20737;-65
2021/06/18 04:17:56;;;;;;;17.77;16.50;;;25.30;82.30;;;;;;3599499;39;20508;-65
2021/06/18 04:20:27;;;;;;;18.30;17.00;;;25.30;82.30;;;;;;3602352;39;20472;-65
2021/06/18 04:22:56;;;;;;;18.53;17.30;;;25.30;82.40;;;;;;3593013;39;20583;-65
2021/06/18 04:25:25;;;;;;;18.93;17.50;;;25.30;82.30;;;;;;3591992;40;20578;-65
2021/06/18 04:27:57;;;;;;;18.30;17.20;;;25.40;82.50;;;;;;3597618;39;20464;-65
2021/06/18 04:30:25;;;;;;;18.20;16.90;;;25.40;82.50;;;;;;3601698;39;20464;-65
2021/06/18 04:32:53;;;;;;;18.37;16.97;;;25.40;82.50;;;;;;3590765;39;20485;-65
2021/06/18 04:35:22;;;;;;;17.20;15.77;;;25.40;82.50;;;;;;3589191;40;20562;-65
2021/06/18 04:37:50;;;;;;;17.03;16.03;;;25.40;82.50;;;;;;3595100;39;20479;-65
2021/06/18 04:40:23;;;;;;;16.87;15.97;;;25.40;82.50;;;;;;3599599;39;21039;-65
2021/06/18 04:42:50;;;;;;;18.97;17.40;;;25.40;82.50;;;;;;3599613;39;20494;-65
2021/06/18 04:45:19;;;;;;;17.73;16.83;;;25.40;82.60;;;;;;3598386;39;21171;-65
2021/06/18 04:47:46;;;;;;;17.87;16.87;;;25.40;82.60;;;;;;3591077;39;20577;-65
2021/06/18 04:50:14;;;;;;;18.80;17.60;;;25.40;82.70;;;;;;3588578;40;20495;-65
2021/06/18 04:52:43;;;;;;;17.63;16.70;;;25.40;82.80;;;;;;3588730;39;20489;-65
2021/06/18 04:55:15;;;;;;;18.10;17.10;;;25.40;82.80;;;;;;3589684;40;20483;-65
2021/06/18 05:00:33;;;;;;;17.97;16.77;;;25.40;82.90;;;;;;3517680;40;20819;-65
2021/06/18 05:03:00;;;;;;;18.70;17.53;;;25.40;82.90;;;;;;3517853;40;20475;-65
2021/06/18 05:05:28;;;;;;;17.87;16.63;;;25.40;83.00;;;;;;3527031;40;20524;-65
2021/06/18 05:07:55;;;;;;;17.60;16.37;;;25.40;83.10;;;;;;3529185;40;20474;-65
2021/06/18 05:10:24;;;;;;;17.90;16.90;;;25.40;83.10;;;;;;3527135;40;20569;-65
2021/06/18 05:12:52;;;;;;;17.20;16.30;;;25.50;83.20;;;;;;3525894;40;20483;-65
2021/06/18 05:15:19;;;;;;;18.43;17.43;;;25.50;83.20;;;;;;3517134;40;20716;-65
2021/06/18 05:17:48;;;;;;;18.30;17.20;;;25.50;83.20;;;;;;3516211;40;20568;-65
2021/06/18 05:20:16;;;;;;;17.63;16.57;;;25.50;83.20;;;;;;3517090;40;21494;-65
2021/06/18 05:22:44;;;;;;;17.50;16.63;;;25.50;83.30;;;;;;3515089;40;20475;-65
2021/06/18 05:25:12;;;;;;;18.53;17.43;;;25.50;83.30;;;;;;3519206;40;21018;-65
2021/06/18 05:27:40;;;;;;;18.80;17.70;;;25.50;83.40;;;;;;3517638;40;20667;-65
2021/06/18 05:30:09;;;;;;;19.00;17.73;;;25.50;83.40;;;;;;3518849;40;20525;-65
2021/06/18 05:32:37;;;;;;;18.40;17.40;;;25.50;83.40;;;;;;3522872;40;20474;-65
2021/06/18 05:35:06;;;;;;;18.70;17.63;;;25.50;83.50;;;;;;3525821;40;21217;-65
2021/06/18 05:37:34;;;;;;;18.40;17.50;;;25.50;83.90;;;;;;3525697;40;20483;-65
2021/06/18 05:40:01;;;;;;;19.23;18.10;;;25.50;83.60;;;;;;3524168;40;20493;-65
2021/06/18 05:42:29;;;;;;;17.57;16.67;;;25.50;83.60;;;;;;3510955;40;20482;-65
2021/06/18 05:44:56;;;;;;;19.97;18.80;;;25.50;83.60;;;;;;3504052;40;20484;-65
2021/06/18 05:47:23;;;;;;;20.60;19.10;;;25.50;83.70;;;;;;3512503;40;20484;-65
2021/06/18 05:49:50;;;;;;;19.10;17.43;;;25.50;83.70;;;;;;3508778;40;20855;-65
2021/06/18 05:52:19;;;;;;;18.23;17.33;;;25.50;83.90;;;;;;3511135;40;20893;-65
2021/06/18 05:54:46;;;;;;;18.23;17.00;;;25.50;83.90;;;;;;3501596;40;21215;-68
2021/06/18 05:57:13;;;;;;;18.27;17.00;;;25.40;83.90;;;;;;3514934;40;20491;-68
2021/06/18 05:59:41;;;;;;;18.07;16.70;;;25.30;84.20;;;;;;3514257;40;20499;-68
2021/06/18 06:02:08;;;;;;;17.60;16.70;;;25.10;84.50;;;;;;3517509;40;20616;-68
2021/06/18 06:04:35;;;;;;;17.77;16.77;;;25.10;84.70;;;;;;3510288;40;20478;-68
2021/06/18 06:07:03;;;;;;;17.27;16.30;;;25.00;85.10;;;;;;3515268;40;20483;-68
2021/06/18 06:09:31;;;;;;;16.53;15.63;;;25.00;85.10;;;;;;3502523;40;20507;-68
2021/06/18 06:11:58;;;;;;;18.10;16.63;;;24.90;85.00;;;;;;3511591;40;20499;-68
2021/06/18 06:14:25;;;;;;;17.00;15.80;;;24.90;85.50;;;;;;3510929;40;20498;-68
2021/06/18 06:16:53;;;;;;;16.00;15.20;;;25.00;85.70;;;;;;3516829;40;20553;-68
2021/06/18 06:19:20;;;;;;;16.47;15.47;;;25.00;85.60;;;;;;3518052;40;20490;-68
2021/06/18 06:21:47;;;;;;;16.17;15.17;;;25.10;85.70;;;;;;3509687;40;20864;-68
2021/06/18 06:24:14;;;;;;;18.07;16.50;;;25.10;86.00;;;;;;3501107;40;20975;-68
2021/06/18 06:26:43;;;;;;;16.73;15.77;;;25.20;85.90;;;;;;3505083;40;20667;-68
2021/06/18 06:29:10;;;;;;;19.10;15.73;;;25.10;86.00;;;;;;3509122;40;21032;-68
2021/06/18 06:31:39;;;;;;;16.90;15.90;;;25.20;86.00;;;;;;3507343;40;20899;-68
2021/06/18 06:34:06;;;;;;;17.93;16.83;;;25.20;86.00;;;;;;3507149;40;20578;-68
2021/06/18 06:36:34;;;;;;;17.77;16.80;;;25.20;86.20;;;;;;3510047;40;20491;-68
2021/06/18 06:39:02;;;;;;;18.50;17.27;;;25.20;86.20;;;;;;3512307;40;20593;-68
2021/06/18 06:41:30;;;;;;;17.03;16.13;;;25.30;86.10;;;;;;3517721;40;20539;-68
2021/06/18 06:43:58;;;;;;;17.80;16.80;;;25.30;86.50;;;;;;3516884;40;21125;-68
2021/06/18 06:46:26;;;;;;;17.27;16.37;;;25.30;86.40;;;;;;3517793;40;20490;-68
2021/06/18 06:48:53;;;;;;;17.87;16.80;;;25.40;86.30;;;;;;3517470;40;20522;-68
2021/06/18 06:51:20;;;;;;;18.17;17.10;;;25.40;86.30;;;;;;3516831;40;20467;-68
2021/06/18 06:53:47;;;;;;;17.40;16.10;;;25.40;86.30;;;;;;3517849;40;20872;-68
2021/06/18 06:56:15;;;;;;;15.97;15.17;;;25.50;86.10;;;;;;3513952;40;20484;-68
2021/06/18 06:58:43;;;;;;;17.97;16.80;;;25.50;86.50;;;;;;3511194;40;20517;-68
2021/06/18 07:01:13;;;;;;;18.53;17.40;;;25.50;86.40;;;;;;3507885;40;21308;-68
2021/06/18 07:03:41;;;;;;;17.60;16.70;;;25.50;86.30;;;;;;3516595;40;20518;-68
2021/06/18 07:06:12;;;;;;;18.60;17.50;;;25.50;86.20;;;;;;3510631;40;20490;-68
2021/06/18 07:08:40;;;;;;;19.10;18.10;;;25.60;86.20;;;;;;3516229;40;21008;-68
2021/06/18 07:11:08;;;;;;;18.10;17.10;;;25.60;86.10;;;;;;3509381;40;20499;-64
2021/06/18 07:13:38;;;;;;;17.77;16.87;;;25.60;86.30;;;;;;3514928;40;20529;-64
2021/06/18 07:16:07;;;;;;;19.40;18.13;;;25.60;86.20;;;;;;3511129;40;20480;-65
2021/06/18 07:18:36;;;;;;;19.83;18.70;;;25.70;86.30;;;;;;3508884;40;20747;-65
2021/06/18 07:21:05;;;;;;;19.80;18.30;;;25.70;86.30;;;;;;3510631;40;20496;-65
2021/06/18 07:23:32;;;;;;;19.90;18.70;;;25.60;86.20;;;;;;3516475;40;20486;-66
2021/06/18 07:26:01;;;;;;;21.30;19.90;;;25.60;86.20;;;;;;3510018;40;21190;-65
2021/06/18 07:28:30;;;;;;;21.27;19.93;;;25.60;86.20;;;;;;3515370;40;20510;-65
2021/06/18 07:30:59;;;;;;;21.10;19.80;;;25.60;86.20;;;;;;3514905;40;20501;-65
2021/06/18 07:33:27;;;;;;;20.80;19.50;;;25.60;86.30;;;;;;3511384;40;21349;-65
2021/06/18 07:35:57;;;;;;;20.83;19.47;;;25.70;86.30;;;;;;3514156;40;20471;-65
2021/06/18 07:38:27;;;;;;;21.50;20.10;;;25.60;86.30;;;;;;3513119;40;125586;-66
2021/06/18 07:40:57;;;;;;;20.40;19.00;;;25.60;87.00;;;;;;3525886;40;20479;-66
2021/06/18 07:43:24;;;;;;;21.27;20.07;;;25.60;86.30;;;;;;3532775;40;20500;-66
2021/06/18 07:45:52;;;;;;;21.00;19.70;;;25.60;86.30;;;;;;3528368;40;20665;-66
2021/06/18 07:48:23;;;;;;;21.67;20.30;;;25.60;86.30;;;;;;3532899;40;21269;-66
2021/06/18 07:50:52;;;;;;;22.37;20.83;;;25.60;86.30;;;;;;3526146;40;20520;-66
2021/06/18 07:53:21;;;;;;;23.87;22.27;;;25.60;86.30;;;;;;3528809;40;20740;-66
2021/06/18 07:55:52;;;;;;;21.27;19.97;;;25.60;86.30;;;;;;3529037;40;20473;-66
2021/06/18 07:58:20;;;;;;;22.10;20.80;;;25.60;86.30;;;;;;3527792;40;20508;-66
2021/06/18 08:00:50;;;;;;;22.07;20.33;;;25.60;86.30;;;;;;3523516;40;20620;-66
2021/06/18 08:03:17;;;;;;;21.20;19.80;;;25.60;86.40;;;;;;3531512;40;20522;-66
2021/06/18 08:05:45;;;;;;;23.57;21.80;;;25.60;86.50;;;;;;3527474;40;20486;-66
2021/06/18 08:08:14;;;;;;;22.60;21.20;;;25.60;86.40;;;;;;3522602;40;20510;-66
2021/06/18 08:10:43;;;;;;;23.77;22.30;;;25.60;86.50;;;;;;3524545;40;20498;-66
2021/06/18 08:13:11;;;;;;;22.20;20.80;;;25.60;86.50;;;;;;3526666;40;20466;-66
2021/06/18 08:15:39;;;;;;;21.73;20.43;;;25.60;86.50;;;;;;3530265;40;20573;-66
2021/06/18 08:18:06;;;;;;;22.20;20.87;;;25.60;86.50;;;;;;3525233;40;20497;-66
2021/06/18 08:20:34;;;;;;;22.13;20.70;;;25.60;86.50;;;;;;3523667;40;20495;-65
2021/06/18 08:23:03;;;;;;;20.93;19.53;;;25.60;86.50;;;;;;3528112;40;20492;-66
2021/06/18 08:25:30;;;;;;;21.57;20.17;;;25.60;86.60;;;;;;3525794;40;21153;-66
2021/06/18 08:28:02;;;;;;;21.23;19.93;;;25.60;86.60;;;;;;3525565;40;20485;-66
2021/06/18 08:30:32;;;;;;;22.33;21.03;;;25.60;86.70;;;;;;3524386;40;21180;-66
2021/06/18 08:33:00;;;;;;;22.27;20.80;;;25.60;86.80;;;;;;3527226;40;20997;-66
2021/06/18 08:35:30;;;;;;;22.87;21.27;;;25.60;86.80;;;;;;3525093;40;20477;-66
2021/06/18 08:38:01;;;;;;;22.67;21.23;;;25.60;86.80;;;;;;3524231;40;20576;-66
2021/06/18 08:40:32;;;;;;;23.90;22.27;;;25.60;86.80;;;;;;3527162;40;20504;-66
2021/06/18 08:43:01;;;;;;;22.60;21.20;;;25.60;86.90;;;;;;3525856;40;20526;-66
2021/06/18 08:45:29;;;;;;;22.40;21.00;;;25.60;87.00;;;;;;3526670;40;20525;-66
2021/06/18 08:47:57;;;;;;;22.40;21.00;;;25.60;87.10;;;;;;3523383;40;20498;-66
2021/06/18 08:50:24;;;;;;;23.30;21.80;;;25.60;87.10;;;;;;3521717;40;21139;-66
2021/06/18 08:52:52;;;;;;;22.97;21.30;;;25.60;87.20;;;;;;3520741;40;20618;-66
2021/06/18 08:55:21;;;;;;;22.93;21.47;;;25.60;88.00;;;;;;3517971;40;20497;-66
2021/06/18 08:57:50;;;;;;;22.47;21.07;;;25.60;87.30;;;;;;3517959;40;21142;-66
2021/06/18 09:00:20;;;;;;;22.30;20.90;;;25.60;87.40;;;;;;3515987;40;20527;-66
2021/06/18 09:02:47;;;;;;;23.30;21.90;;;25.60;87.40;;;;;;3517017;40;20642;-67
2021/06/18 09:05:16;;;;;;;23.00;21.50;;;25.70;87.50;;;;;;3519150;40;20513;-66
2021/06/18 09:07:54;;;;;;;24.07;22.57;;;25.70;87.60;;;;;;3516318;40;20513;-66
2021/06/18 09:10:28;;;;;;;24.60;22.80;;;25.70;88.40;;;;;;3517894;40;20757;-66
2021/06/18 09:13:17;;;;;;;23.63;22.13;;;25.70;87.70;;;;;;3517280;40;20634;-66
2021/06/18 09:15:50;;;;;;;24.50;23.00;;;25.70;87.80;;;;;;3515466;40;20697;-66
2021/06/18 09:18:25;;;;;;;25.40;23.50;;;25.70;87.90;;;;;;3516783;40;21222;-66
2021/06/18 09:20:54;;;;;;;23.00;21.50;;;25.70;88.10;;;;;;3519076;40;20811;-66
2021/06/18 09:23:25;;;;;;;24.40;22.80;;;25.70;88.10;;;;;;3508415;40;20573;-66
2021/06/18 09:26:19;;;;;;;24.70;23.20;;;25.70;88.20;;;;;;3517790;40;20499;-66
2021/06/18 09:29:07;;;;;;;23.97;22.37;;;25.70;88.30;;;;;;3510000;40;20551;-66
2021/06/18 09:31:39;;;;;;;23.30;21.80;;;25.70;88.40;;;;;;3507961;40;20805;-66
2021/06/18 09:34:07;;;;;;;24.17;22.57;;;25.70;88.40;;;;;;3515599;40;20731;-66
2021/06/18 09:36:36;;;;;;;26.07;24.23;;;25.70;88.50;;;;;;3515538;40;20917;-66
2021/06/18 09:39:06;;;;;;;24.60;22.90;;;25.70;88.50;;;;;;3518938;40;20805;-66
2021/06/18 09:41:36;;;;;;;23.90;22.40;;;25.70;88.50;;;;;;3509357;40;20579;-66
2021/06/18 09:44:05;;;;;;;24.27;22.87;;;25.70;88.60;;;;;;3507956;40;20857;-66
2021/06/18 09:46:46;;;;;;;25.40;23.63;;;25.70;88.60;;;;;;3519341;40;20931;-66
2021/06/18 09:49:15;;;;;;;23.57;22.17;;;25.70;88.70;;;;;;3519428;40;20642;-66
2021/06/18 09:51:56;;;;;;;25.23;23.20;;;25.70;88.60;;;;;;3519474;40;20794;-66
2021/06/18 09:54:31;;;;;;;21.77;20.37;;;25.70;88.70;;;;;;3519893;40;20634;-66
2021/06/18 09:57:08;;;;;;;23.17;21.77;;;25.70;88.70;;;;;;3519904;40;20551;-66
2021/06/18 10:00:04;;;;;;;23.10;21.60;;;25.70;88.70;;;;;;3520123;40;20545;-66
2021/06/18 10:02:44;;;;;;;22.03;20.73;;;25.70;88.80;;;;;;3497955;40;20565;-66
2021/06/18 10:05:14;;;;;;;22.83;21.33;;;25.70;88.80;;;;;;3522652;40;20496;-66
2021/06/18 10:07:43;;;;;;;23.53;22.13;;;25.70;88.90;;;;;;3511494;40;20493;-66
2021/06/18 10:10:12;;;;;;;23.40;22.00;;;25.70;89.00;;;;;;3521653;40;20527;-66
2021/06/18 10:12:40;;;;;;;23.97;22.30;;;25.70;88.90;;;;;;3523178;40;20743;-66
2021/06/18 10:15:10;;;;;;;24.30;22.70;;;25.70;88.90;;;;;;3523274;40;20620;-66
2021/06/18 10:17:38;;;;;;;23.87;22.27;;;25.70;88.90;;;;;;3520884;40;20987;-66
2021/06/18 10:20:09;;;;;;;24.23;22.73;;;25.70;88.80;;;;;;3523978;40;20502;-66
2021/06/18 10:22:44;;;;;;;25.17;23.57;;;25.70;88.90;;;;;;3522519;40;20712;-66
2021/06/18 10:25:15;;;;;;;25.30;23.73;;;25.70;88.80;;;;;;3523355;40;20860;-66
2021/06/18 10:27:46;;;;;;;24.40;22.90;;;25.70;88.70;;;;;;3520404;40;20481;-66
2021/06/18 10:30:32;;;;;;;25.57;23.43;;;25.70;88.70;;;;;;3520331;40;20656;-66
2021/06/18 10:33:01;;;;;;;23.67;22.27;;;25.70;88.70;;;;;;3524247;40;20800;-66
2021/06/18 10:35:49;;;;;;;22.80;21.40;;;25.70;88.60;;;;;;3524046;40;20939;-66
2021/06/18 10:38:27;;;;;;;23.30;21.80;;;25.70;88.60;;;;;;3523734;40;20636;-66
2021/06/18 10:40:57;;;;;;;25.30;23.50;;;25.70;88.50;;;;;;3522567;40;20865;-66
2021/06/18 10:43:37;;;;;;;23.80;22.40;;;25.70;88.30;;;;;;3524211;40;20781;-66
2021/06/18 10:46:10;;;;;;;23.07;21.60;;;25.70;88.30;;;;;;3524913;40;20960;-66
2021/06/18 10:49:02;;;;;;;22.80;21.40;;;25.70;88.10;;;;;;3526675;40;20576;-66
2021/06/18 10:51:33;;;;;;;23.23;21.67;;;25.70;88.00;;;;;;3524842;40;21113;-66
2021/06/18 10:54:03;;;;;;;23.30;21.80;;;25.70;87.80;;;;;;3524042;40;20767;-66
2021/06/18 10:56:55;;;;;;;23.17;21.50;;;25.70;87.60;;;;;;3521728;40;20739;-66
2021/06/18 10:59:35;;;;;;;21.63;20.33;;;25.70;87.60;;;;;;3522263;40;20613;-66
2021/06/18 11:02:04;;;;;;;22.33;21.03;;;25.80;87.40;;;;;;3524430;40;20686;-66
2021/06/18 11:04:42;;;;;;;24.27;22.53;;;25.70;87.20;;;;;;3522576;40;20760;-66
2021/06/18 11:07:22;;;;;;;24.23;22.70;;;25.70;87.10;;;;;;3522294;40;20807;-66
2021/06/18 11:09:50;;;;;;;22.03;20.63;;;25.70;87.00;;;;;;3522084;40;21065;-66
2021/06/18 11:12:44;;;;;;;22.90;21.40;;;25.70;86.80;;;;;;3522680;40;20844;-66
2021/06/18 11:15:37;;;;;;;21.83;20.53;;;25.80;86.80;;;;;;3525280;40;20707;-66
2021/06/18 11:18:13;;;;;;;24.10;22.50;;;25.70;86.60;;;;;;3524504;40;20793;-66
2021/06/18 11:20:55;;;;;;;23.20;21.80;;;25.70;86.40;;;;;;3527475;40;20781;-66
2021/06/18 11:23:26;;;;;;;21.97;20.77;;;25.70;86.30;;;;;;3526666;40;20489;-66
2021/06/18 11:25:59;;;;;;;22.20;20.90;;;25.70;86.10;;;;;;3527131;40;20728;-66
2021/06/18 11:28:51;;;;;;;22.07;20.77;;;25.70;86.00;;;;;;3526603;40;20698;-66
2021/06/18 11:31:21;;;;;;;21.73;20.40;;;25.80;85.90;;;;;;3526737;40;20494;-66
2021/06/18 11:33:57;;;;;;;21.40;20.10;;;25.80;85.70;;;;;;3526037;40;20698;-66
2021/06/18 11:36:52;;;;;;;22.87;21.47;;;25.70;85.50;;;;;;3527028;40;20814;-66
2021/06/18 11:39:29;;;;;;;21.50;20.30;;;25.80;85.50;;;;;;3528596;40;20513;-66
2021/06/18 11:42:14;;;;;;;21.67;20.37;;;25.80;85.30;;;;;;3526968;40;20612;-66
2021/06/18 11:44:41;;;;;;;22.40;20.93;;;25.80;85.30;;;;;;3528483;40;20589;-66
2021/06/18 11:47:09;;;;;;;20.47;19.37;;;25.80;85.20;;;;;;3527022;40;20516;-66
2021/06/18 11:49:44;;;;;;;21.57;20.17;;;25.70;85.00;;;;;;3525195;40;20697;-66
2021/06/18 11:52:12;;;;;;;22.03;20.63;;;25.80;85.10;;;;;;3524553;40;20508;-66
2021/06/18 11:54:43;;;;;;;23.00;21.70;;;25.80;85.00;;;;;;3523689;40;20489;-66
2021/06/18 11:57:20;;;;;;;22.03;20.57;;;25.80;85.00;;;;;;3528392;40;21011;-66
2021/06/18 11:59:57;;;;;;;21.97;20.60;;;25.80;85.20;;;;;;3528989;40;20595;-66
2021/06/18 12:02:26;;;;;;;23.00;21.60;;;25.80;85.00;;;;;;3527015;40;20893;-66
2021/06/18 12:05:11;;;;;;;23.93;22.40;;;25.80;85.00;;;;;;3527671;40;20797;-66
2021/06/18 12:07:39;;;;;;;22.60;21.20;;;25.80;85.00;;;;;;3527751;40;21059;-66
2021/06/18 12:10:10;;;;;;;21.07;19.80;;;25.80;84.90;;;;;;3528318;40;20665;-66
2021/06/18 12:12:48;;;;;;;23.23;21.43;;;25.80;84.90;;;;;;3528422;40;20727;-66
2021/06/18 12:15:20;;;;;;;22.10;20.80;;;25.80;84.90;;;;;;3529397;40;20474;-66
2021/06/18 12:17:52;;;;;;;22.33;21.07;;;25.80;84.90;;;;;;3527886;40;20505;-66
2021/06/18 12:20:28;;;;;;;20.83;19.63;;;25.80;84.90;;;;;;3529154;40;21347;-66
2021/06/18 12:22:56;;;;;;;24.20;22.60;;;25.80;84.90;;;;;;3531750;40;20516;-66
2021/06/18 12:25:25;;;;;;;21.63;20.33;;;25.80;84.90;;;;;;3532282;40;20900;-66
2021/06/18 12:27:58;;;;;;;21.47;20.17;;;25.80;84.90;;;;;;3532308;40;20501;-66
2021/06/18 12:30:30;;;;;;;22.83;21.37;;;25.80;84.90;;;;;;3531321;40;20838;-66
2021/06/18 12:32:57;;;;;;;22.90;21.40;;;25.80;84.90;;;;;;3532589;40;20508;-66
2021/06/18 12:35:35;;;;;;;21.90;20.60;;;25.80;84.90;;;;;;3533694;40;20719;-66
2021/06/18 12:38:04;;;;;;;23.30;21.87;;;25.80;84.90;;;;;;3532196;40;20665;-66
2021/06/18 12:40:33;;;;;;;22.50;21.10;;;25.80;84.90;;;;;;3532737;40;20824;-66
2021/06/18 12:43:07;;;;;;;24.03;22.63;;;25.80;84.80;;;;;;3533545;40;20493;-66
2021/06/18 12:45:37;;;;;;;22.10;20.80;;;25.80;84.80;;;;;;3533635;40;20884;-66
2021/06/18 12:48:12;;;;;;;23.00;21.60;;;25.80;84.80;;;;;;3532075;40;20673;-66